Time;durP1;ratioP1;P1;durP2;ratioP2;P2;SDS_P1;SDS_P2;PMS_P1;PMS_P2;Temp;Humidity;BMP_temperature;BMP_pressure;BME280_temperature;BME280_humidity;BME280_pressure;Samples;Min_cycle;Max_cycle;Signal;HPM_P1;HPM_P2
2023/07/31 00:02:15;;;;;;;;;;;;;;;15.78;100.00;101001.66;5033014;28;19997;-74
2023/07/31 00:04:40;;;;;;;;;;;;;;;15.76;100.00;101009.91;5045714;28;20055;-75
2023/07/31 00:07:06;;;;;;;;;;;;;;;15.79;100.00;100998.78;5045161;28;20276;-70
2023/07/31 00:09:32;;;;;;;;;;;;;;;15.86;100.00;100996.38;5045679;28;20378;-75
2023/07/31 00:11:57;;;;;;;;;;;;;;;15.77;100.00;100999.94;5015945;28;19920;-75
2023/07/31 00:14:22;;;;;;;;;;;;;;;15.76;100.00;100999.06;5045032;28;20486;-75
2023/07/31 00:16:47;;;;;;;;;;;;;;;15.85;100.00;100997.34;5033103;28;19931;-76
2023/07/31 00:19:13;;;;;;;;;;;;;;;15.83;100.00;100993.94;5046072;28;19921;-71
2023/07/31 00:21:38;;;;;;;;;;;;;;;15.90;100.00;100992.34;5031588;28;20045;-77
2023/07/31 00:24:03;;;;;;;;;;;;;;;15.88;100.00;100995.22;5044855;28;20024;-73
2023/07/31 00:26:28;;;;;;;;;;;;;;;15.91;100.00;100995.91;5033035;28;20471;-78
2023/07/31 00:28:54;;;;;;;;;;;;;;;15.94;100.00;100993.75;5047208;28;19948;-78
2023/07/31 00:31:19;;;;;;;;;;;;;;;15.89;100.00;100993.38;5047819;28;19978;-75
2023/07/31 00:33:44;;;;;;;;;;;;;;;15.89;100.00;100994.22;5045680;28;20040;-74
2023/07/31 00:36:09;;;;;;;;;;;;;;;15.98;100.00;100988.91;5045619;28;19921;-76
2023/07/31 00:38:34;;;;;;;;;;;;;;;15.90;100.00;100989.63;5017899;28;19929;-75
2023/07/31 00:41:00;;;;;;;;;;;;;;;15.94;100.00;100980.22;5047589;28;19931;-74
2023/07/31 00:43:25;;;;;;;;;;;;;;;15.90;100.00;100981.50;5030511;28;20011;-75
2023/07/31 00:45:50;;;;;;;;;;;;;;;15.84;100.00;100987.53;5045972;28;20330;-75
2023/07/31 00:48:15;;;;;;;;;;;;;;;15.86;100.00;100999.09;5045495;28;20098;-73
2023/07/31 00:50:41;;;;;;;;;;;;;;;15.86;100.00;100994.50;5029668;28;19947;-73
2023/07/31 00:53:06;;;;;;;;;;;;;;;15.88;100.00;100992.50;5018516;28;19920;-75
2023/07/31 00:55:31;;;;;;;;;;;;;;;15.86;100.00;100985.56;5031238;28;20009;-73
2023/07/31 00:57:56;;;;;;;;;;;;;;;15.81;100.00;100975.13;5012566;28;20019;-76
2023/07/31 01:00:22;;;;;;;;;;;;;;;15.87;100.00;100979.97;5011165;28;20076;-75
2023/07/31 01:02:47;;;;;;;;;;;;;;;15.87;100.00;100974.56;5041124;28;20326;-76
2023/07/31 01:05:13;;;;;;;;;;;;;;;15.89;100.00;100982.53;5028611;28;20366;-75
2023/07/31 01:07:45;;;;;;;;;;;;;;;15.84;100.00;100977.53;5012237;28;20374;-73
2023/07/31 01:10:11;;;;;;;;;;;;;;;15.77;100.00;100956.63;5027896;28;20248;-70
2023/07/31 01:12:37;;;;;;;;;;;;;;;15.85;100.00;100972.97;5047386;28;20371;-78
2023/07/31 01:15:06;;;;;;;;;;;;;;;15.88;100.00;100976.25;5045959;28;19928;-77
2023/07/31 01:17:31;;;;;;;;;;;;;;;15.91;100.00;100975.09;5031414;28;20063;-78
2023/07/31 01:19:58;;;;;;;;;;;;;;;15.82;100.00;100974.13;5029031;28;20223;-74
2023/07/31 01:22:42;;;;;;;;;;;;;;;15.88;100.00;100970.84;5031832;28;19921;-76
2023/07/31 01:25:10;;;;;;;;;;;;;;;15.88;100.00;100973.56;5031085;28;20450;-77
2023/07/31 01:27:37;;;;;;;;;;;;;;;15.93;100.00;100972.25;5036779;28;20039;-73
2023/07/31 01:30:14;;;;;;;;;;;;;;;15.86;100.00;100974.72;5049953;28;19921;-71
2023/07/31 01:32:39;;;;;;;;;;;;;;;15.86;100.00;100980.97;5036107;28;19920;-77
2023/07/31 01:35:05;;;;;;;;;;;;;;;15.88;100.00;100978.97;5035561;28;19964;-74
2023/07/31 01:37:30;;;;;;;;;;;;;;;15.91;100.00;100977.78;5051622;28;19932;-74
2023/07/31 01:39:55;;;;;;;;;;;;;;;15.86;100.00;100972.00;5050752;28;19923;-76
2023/07/31 01:42:20;;;;;;;;;;;;;;;15.89;100.00;100969.84;5053896;28;19925;-78
2023/07/31 01:44:46;;;;;;;;;;;;;;;15.87;100.00;100971.84;5037491;28;20281;-76
2023/07/31 01:47:11;;;;;;;;;;;;;;;15.81;100.00;100975.13;5033425;28;20023;-76
2023/07/31 01:49:36;;;;;;;;;;;;;;;15.84;100.00;100969.41;5026812;28;19921;-76
2023/07/31 01:52:01;;;;;;;;;;;;;;;15.87;100.00;100960.19;5024821;28;19925;-72
2023/07/31 01:54:26;;;;;;;;;;;;;;;15.74;100.00;100955.09;5049262;28;20499;-74
2023/07/31 01:56:52;;;;;;;;;;;;;;;15.80;100.00;100959.03;5037915;28;20559;-81
2023/07/31 01:59:17;;;;;;;;;;;;;;;15.85;100.00;100957.56;5048909;28;20581;-72
2023/07/31 02:01:42;;;;;;;;;;;;;;;15.84;100.00;100955.88;5036622;28;20264;-74
2023/07/31 02:04:07;;;;;;;;;;;;;;;15.91;100.00;100955.31;5038116;28;19924;-78
2023/07/31 02:06:32;;;;;;;;;;;;;;;15.88;100.00;100953.75;5037844;28;19920;-74
2023/07/31 02:08:58;;;;;;;;;;;;;;;15.93;100.00;100954.13;5050076;28;19970;-73
2023/07/31 02:11:23;;;;;;;;;;;;;;;15.96;100.00;100953.00;5037669;28;19917;-76
2023/07/31 02:13:48;;;;;;;;;;;;;;;15.96;100.00;100939.47;5052512;28;19956;-77
2023/07/31 02:16:13;;;;;;;;;;;;;;;15.88;100.00;100943.78;5034197;28;20043;-73
2023/07/31 02:18:39;;;;;;;;;;;;;;;15.91;100.00;100934.47;5043857;28;20007;-70
2023/07/31 02:21:04;;;;;;;;;;;;;;;15.81;100.00;100936.38;5022930;28;20378;-75
2023/07/31 02:23:29;;;;;;;;;;;;;;;15.87;100.00;100933.94;5034611;28;19936;-71
2023/07/31 02:25:54;;;;;;;;;;;;;;;16.00;100.00;100932.72;5050888;28;19921;-72
2023/07/31 02:28:19;;;;;;;;;;;;;;;15.96;100.00;100929.47;5023355;28;19921;-72
2023/07/31 02:30:46;;;;;;;;;;;;;;;15.92;100.00;100929.94;5017087;28;19932;-74
2023/07/31 02:33:11;;;;;;;;;;;;;;;15.97;100.00;100927.63;5031955;28;19920;-72
2023/07/31 02:35:36;;;;;;;;;;;;;;;15.78;100.00;100923.97;5049659;28;19952;-76
2023/07/31 02:38:01;;;;;;;;;;;;;;;15.89;100.00;100922.97;5033777;28;19920;-72
2023/07/31 02:40:26;;;;;;;;;;;;;;;15.93;100.00;100918.09;5049368;28;19924;-72
2023/07/31 02:42:52;;;;;;;;;;;;;;;15.80;100.00;100913.84;5051897;28;19929;-75
2023/07/31 02:45:17;;;;;;;;;;;;;;;15.86;100.00;100907.03;5033507;28;20236;-72
2023/07/31 02:47:42;;;;;;;;;;;;;;;15.76;100.00;100912.44;5034753;28;20038;-72
2023/07/31 02:50:07;;;;;;;;;;;;;;;15.78;100.00;100917.72;5017411;28;20367;-71
2023/07/31 02:52:33;;;;;;;;;;;;;;;15.73;100.00;100916.31;5021059;28;20664;-70
2023/07/31 02:54:58;;;;;;;;;;;;;;;15.81;100.00;100917.44;5033163;28;20737;-76
2023/07/31 02:57:23;;;;;;;;;;;;;;;15.77;100.00;100902.50;5033827;28;20541;-72
2023/07/31 02:59:48;;;;;;;;;;;;;;;15.73;100.00;100904.66;5034305;28;19921;-75
2023/07/31 03:02:14;;;;;;;;;;;;;;;15.71;100.00;100903.97;5032851;28;19925;-76
2023/07/31 03:04:39;;;;;;;;;;;;;;;15.69;100.00;100911.38;5052750;28;19924;-78
2023/07/31 03:07:04;;;;;;;;;;;;;;;15.81;100.00;100901.19;5035614;28;20538;-79
2023/07/31 03:09:30;;;;;;;;;;;;;;;15.78;100.00;100906.91;5033441;28;19928;-75
2023/07/31 03:11:55;;;;;;;;;;;;;;;15.71;100.00;100910.22;5033141;28;19967;-80
2023/07/31 03:14:20;;;;;;;;;;;;;;;15.69;100.00;100904.09;5033514;28;20288;-74
2023/07/31 03:16:45;;;;;;;;;;;;;;;15.80;100.00;100904.91;5028883;28;20011;-75
2023/07/31 03:19:10;;;;;;;;;;;;;;;15.80;100.00;100903.03;5014988;28;19920;-73
2023/07/31 03:21:36;;;;;;;;;;;;;;;15.77;100.00;100908.75;5019856;28;20189;-76
2023/07/31 03:24:01;;;;;;;;;;;;;;;15.79;100.00;100909.44;5033331;28;19939;-75
2023/07/31 03:26:26;;;;;;;;;;;;;;;15.77;100.00;100908.75;5036454;28;19972;-74
2023/07/31 03:28:51;;;;;;;;;;;;;;;15.75;100.00;100897.25;5017290;28;19923;-80
2023/07/31 03:31:16;;;;;;;;;;;;;;;15.78;100.00;100899.63;5034013;28;20002;-75
2023/07/31 03:33:42;;;;;;;;;;;;;;;15.69;100.00;100905.97;5049758;28;20280;-74
2023/07/31 03:36:07;;;;;;;;;;;;;;;15.72;100.00;100906.50;5046532;28;20335;-73
2023/07/31 03:38:33;;;;;;;;;;;;;;;15.72;100.00;100897.53;5031155;28;19975;-74
2023/07/31 03:40:58;;;;;;;;;;;;;;;15.73;100.00;100889.25;5050200;28;19936;-75
2023/07/31 03:43:24;;;;;;;;;;;;;;;15.69;100.00;100881.59;5046877;28;19921;-76
2023/07/31 03:45:50;;;;;;;;;;;;;;;15.62;100.00;100875.09;5031288;28;19928;-75
2023/07/31 03:48:15;;;;;;;;;;;;;;;15.73;100.00;100878.44;5014853;28;19948;-76
2023/07/31 03:50:40;;;;;;;;;;;;;;;15.67;100.00;100876.31;5033253;28;19924;-78
2023/07/31 03:53:06;;;;;;;;;;;;;;;15.58;100.00;100882.66;5026778;28;19925;-72
2023/07/31 03:55:31;;;;;;;;;;;;;;;15.53;100.00;100883.09;5030237;28;20267;-75
2023/07/31 03:57:56;;;;;;;;;;;;;;;15.56;100.00;100871.97;5012341;28;19974;-74
2023/07/31 04:00:22;;;;;;;;;;;;;;;15.62;100.00;100875.97;5030971;28;19925;-76
2023/07/31 04:02:47;;;;;;;;;;;;;;;15.48;100.00;100871.91;5046901;28;20272;-71
2023/07/31 04:05:13;;;;;;;;;;;;;;;15.50;100.00;100874.44;5046607;28;19927;-71
2023/07/31 04:07:38;;;;;;;;;;;;;;;15.51;100.00;100868.03;5035561;28;20463;-78
2023/07/31 04:10:03;;;;;;;;;;;;;;;15.52;100.00;100870.56;5033390;28;20366;-75
2023/07/31 04:12:28;;;;;;;;;;;;;;;15.62;100.00;100866.97;5034059;28;19978;-78
2023/07/31 04:14:54;;;;;;;;;;;;;;;15.55;100.00;100861.31;5050532;28;20000;-75
2023/07/31 04:17:19;;;;;;;;;;;;;;;15.60;100.00;100862.56;5031690;28;19928;-71
2023/07/31 04:19:44;;;;;;;;;;;;;;;15.62;100.00;100859.72;5032088;28;19925;-75
2023/07/31 04:22:09;;;;;;;;;;;;;;;15.62;100.00;100853.44;5046646;28;19968;-72
2023/07/31 04:24:34;;;;;;;;;;;;;;;15.59;100.00;100860.03;5030557;28;20542;-73
2023/07/31 04:27:00;;;;;;;;;;;;;;;15.65;100.00;100862.09;5047946;28;20311;-72
2023/07/31 04:29:25;;;;;;;;;;;;;;;15.69;100.00;100851.84;5032203;28;20379;-76
2023/07/31 04:31:50;;;;;;;;;;;;;;;15.69;100.00;100849.13;5048922;28;19920;-72
2023/07/31 04:34:15;;;;;;;;;;;;;;;15.71;100.00;100857.94;5046814;28;19956;-73
2023/07/31 04:36:41;;;;;;;;;;;;;;;15.86;100.00;100855.59;5048657;28;19928;-73
2023/07/31 04:39:06;;;;;;;;;;;;;;;15.93;100.00;100850.41;5046817;28;19966;-77
2023/07/31 04:41:31;;;;;;;;;;;;;;;15.86;100.00;100844.78;5032787;28;20011;-74
2023/07/31 04:43:56;;;;;;;;;;;;;;;15.88;100.00;100849.00;5047584;28;20291;-73
2023/07/31 04:46:21;;;;;;;;;;;;;;;15.95;100.00;100846.53;5048074;28;20301;-79
2023/07/31 04:48:47;;;;;;;;;;;;;;;15.91;100.00;100844.28;5017255;28;20358;-74
2023/07/31 04:51:12;;;;;;;;;;;;;;;15.88;100.00;100838.19;5030165;28;20315;-76
2023/07/31 04:53:37;;;;;;;;;;;;;;;16.04;100.00;100836.63;5029504;28;20019;-74
2023/07/31 04:56:02;;;;;;;;;;;;;;;16.06;100.00;100840.03;5018443;28;20018;-75
2023/07/31 04:58:28;;;;;;;;;;;;;;;16.01;100.00;100836.97;5018942;28;20030;-72
2023/07/31 05:00:53;;;;;;;;;;;;;;;15.92;100.00;100848.72;5034558;28;19921;-72
2023/07/31 05:03:18;;;;;;;;;;;;;;;15.93;100.00;100837.72;5033152;28;19925;-77
2023/07/31 05:05:43;;;;;;;;;;;;;;;16.04;100.00;100837.47;5052728;28;20259;-75
2023/07/31 05:08:08;;;;;;;;;;;;;;;16.02;100.00;100831.38;5030199;28;19929;-71
2023/07/31 05:10:34;;;;;;;;;;;;;;;16.06;100.00;100823.78;5016539;28;19979;-74
2023/07/31 05:12:59;;;;;;;;;;;;;;;16.14;100.00;100823.84;5049455;28;19917;-72
2023/07/31 05:15:24;;;;;;;;;;;;;;;16.04;100.00;100828.50;5048036;28;20388;-72
2023/07/31 05:17:49;;;;;;;;;;;;;;;15.99;100.00;100820.00;5033240;28;19960;-73
2023/07/31 05:20:15;;;;;;;;;;;;;;;15.87;100.00;100819.41;5051885;28;19995;-72
2023/07/31 05:22:40;;;;;;;;;;;;;;;15.93;100.00;100816.03;5048346;28;19984;-73
2023/07/31 05:25:05;;;;;;;;;;;;;;;15.95;100.00;100813.19;5029940;28;20015;-71
2023/07/31 05:27:31;;;;;;;;;;;;;;;15.83;100.00;100813.38;5035311;28;19994;-74
2023/07/31 05:29:56;;;;;;;;;;;;;;;15.72;100.00;100814.47;5015459;28;19916;-73
2023/07/31 05:32:21;;;;;;;;;;;;;;;15.63;100.00;100812.69;5036260;28;19951;-75
2023/07/31 05:34:47;;;;;;;;;;;;;;;15.69;100.00;100814.78;5049161;28;20012;-77
2023/07/31 05:37:12;;;;;;;;;;;;;;;15.62;100.00;100816.41;5026119;28;20015;-74
2023/07/31 05:39:38;;;;;;;;;;;;;;;15.60;100.00;100821.13;5034053;28;20010;-77
2023/07/31 05:42:03;;;;;;;;;;;;;;;15.53;100.00;100812.75;5032395;28;19925;-72
2023/07/31 05:44:28;;;;;;;;;;;;;;;15.54;100.00;100813.63;5034746;28;20423;-75
2023/07/31 05:46:53;;;;;;;;;;;;;;;15.51;100.00;100806.63;5033933;28;19940;-73
2023/07/31 05:49:19;;;;;;;;;;;;;;;15.54;100.00;100800.09;5034754;28;19920;-72
2023/07/31 05:51:44;;;;;;;;;;;;;;;15.51;100.00;100809.34;5030941;28;20391;-74
2023/07/31 05:54:09;;;;;;;;;;;;;;;15.54;100.00;100805.50;5036034;28;20449;-74
2023/07/31 05:56:34;;;;;;;;;;;;;;;15.62;100.00;100800.19;5018839;28;20282;-74
2023/07/31 05:58:59;;;;;;;;;;;;;;;15.62;100.00;100799.31;5033197;28;20360;-71
2023/07/31 06:01:25;;;;;;;;;;;;;;;15.61;100.00;100793.06;5043227;28;19928;-72
2023/07/31 06:03:50;;;;;;;;;;;;;;;15.63;100.00;100788.31;5050212;28;19968;-74
2023/07/31 06:06:15;;;;;;;;;;;;;;;15.66;100.00;100789.88;5047269;28;20529;-75
2023/07/31 06:08:40;;;;;;;;;;;;;;;15.71;100.00;100791.13;5021234;28;19928;-71
2023/07/31 06:11:07;;;;;;;;;;;;;;;15.66;100.00;100785.31;5031163;28;19925;-71
2023/07/31 06:13:32;;;;;;;;;;;;;;;15.63;100.00;100790.19;5049270;28;20106;-70
2023/07/31 06:15:59;;;;;;;;;;;;;;;15.57;100.00;100797.91;5023120;28;19980;-72
2023/07/31 06:18:24;;;;;;;;;;;;;;;15.59;100.00;100785.09;5014143;28;19964;-71
2023/07/31 06:20:53;;;;;;;;;;;;;;;15.68;100.00;100793.28;5028036;28;20463;-72
2023/07/31 06:23:18;;;;;;;;;;;;;;;15.70;100.00;100785.88;5036514;28;20678;-71
2023/07/31 06:25:43;;;;;;;;;;;;;;;15.62;100.00;100788.50;5045640;28;19925;-72
2023/07/31 06:28:08;;;;;;;;;;;;;;;15.68;100.00;100779.75;5049509;28;19992;-72
2023/07/31 06:30:34;;;;;;;;;;;;;;;15.61;100.00;100782.25;5031418;28;20011;-70
2023/07/31 06:32:59;;;;;;;;;;;;;;;15.68;100.00;100774.34;5032221;28;19920;-73
2023/07/31 06:35:24;;;;;;;;;;;;;;;15.66;100.00;100774.50;5026757;28;19921;-70
2023/07/31 06:37:50;;;;;;;;;;;;;;;15.64;100.00;100768.38;5031632;28;19947;-71
2023/07/31 06:40:16;;;;;;;;;;;;;;;15.64;100.00;100772.94;5008337;28;20296;-70
2023/07/31 06:42:41;;;;;;;;;;;;;;;15.64;100.00;100768.38;5034063;28;19924;-70
2023/07/31 06:45:07;;;;;;;;;;;;;;;15.57;100.00;100764.59;5031574;28;19924;-74
2023/07/31 06:47:32;;;;;;;;;;;;;;;15.65;100.00;100759.25;5019377;28;19928;-71
2023/07/31 06:49:57;;;;;;;;;;;;;;;15.70;100.00;100758.81;5047119;28;19944;-73
2023/07/31 06:52:23;;;;;;;;;;;;;;;15.67;100.00;100746.41;5030113;28;19917;-70
2023/07/31 06:55:00;;;;;;;;;;;;;;;15.71;100.00;100745.09;5047389;28;19943;-70
2023/07/31 06:57:25;;;;;;;;;;;;;;;15.79;100.00;100730.78;5030107;28;20544;-73
2023/07/31 06:59:50;;;;;;;;;;;;;;;15.78;100.00;100731.78;5046047;28;19967;-70
2023/07/31 07:02:15;;;;;;;;;;;;;;;15.83;100.00;100737.59;5031990;28;19962;-70
2023/07/31 07:04:41;;;;;;;;;;;;;;;15.87;100.00;100738.19;5032442;28;20370;-71
2023/07/31 07:07:06;;;;;;;;;;;;;;;15.82;100.00;100733.19;5032252;28;19940;-71
2023/07/31 07:09:31;;;;;;;;;;;;;;;15.84;100.00;100739.28;5042133;28;20335;-74
2023/07/31 07:11:57;;;;;;;;;;;;;;;15.89;100.00;100726.19;5049756;28;20560;-73
2023/07/31 07:14:22;;;;;;;;;;;;;;;15.81;100.00;100727.94;5048566;28;19920;-70
2023/07/31 07:16:50;;;;;;;;;;;;;;;15.77;100.00;100729.25;5033232;28;20122;-73
2023/07/31 07:19:15;;;;;;;;;;;;;;;15.91;100.00;100725.16;5047117;28;19916;-71
2023/07/31 07:21:40;;;;;;;;;;;;;;;15.88;100.00;100723.63;5031751;28;20251;-70
2023/07/31 07:24:07;;;;;;;;;;;;;;;15.86;100.00;100710.25;5025098;28;20418;-74
2023/07/31 07:26:33;;;;;;;;;;;;;;;15.88;100.00;100721.75;5029709;28;19951;-70
2023/07/31 07:28:58;;;;;;;;;;;;;;;15.89;100.00;100711.81;5026002;28;20272;-71
2023/07/31 07:31:23;;;;;;;;;;;;;;;15.99;100.00;100704.41;5030451;28;19960;-69
2023/07/31 07:33:48;;;;;;;;;;;;;;;16.01;100.00;100709.69;5031530;28;20305;-70
2023/07/31 07:36:13;;;;;;;;;;;;;;;15.99;100.00;100701.72;5034173;28;19970;-73
2023/07/31 07:38:39;;;;;;;;;;;;;;;15.95;100.00;100705.72;5028865;28;20006;-70
2023/07/31 07:41:04;;;;;;;;;;;;;;;16.07;100.00;100700.91;5030729;28;19916;-70
2023/07/31 07:43:29;;;;;;;;;;;;;;;16.15;100.00;100702.84;5027351;28;19968;-70
2023/07/31 07:45:54;;;;;;;;;;;;;;;16.15;100.00;100708.25;5041285;28;20047;-70
2023/07/31 07:48:21;;;;;;;;;;;;;;;16.12;100.00;100709.41;5024871;28;20039;-70
2023/07/31 07:50:47;;;;;;;;;;;;;;;16.13;100.00;100715.69;5040629;28;20584;-70
2023/07/31 07:53:12;;;;;;;;;;;;;;;16.15;100.00;100714.50;5028564;28;19921;-70
2023/07/31 07:55:37;;;;;;;;;;;;;;;16.14;100.00;100709.28;5039280;28;19932;-71
2023/07/31 07:58:02;;;;;;;;;;;;;;;16.17;100.00;100709.78;5030469;28;19932;-73
2023/07/31 08:00:27;;;;;;;;;;;;;;;16.23;100.00;100710.16;5031989;28;19931;-70
2023/07/31 08:02:53;;;;;;;;;;;;;;;16.24;100.00;100704.56;5029280;28;19935;-71
2023/07/31 08:05:18;;;;;;;;;;;;;;;16.24;100.00;100703.75;5034482;28;19924;-74
2023/07/31 08:07:43;;;;;;;;;;;;;;;16.15;100.00;100708.25;5028652;28;19917;-69
2023/07/31 08:10:08;;;;;;;;;;;;;;;16.13;100.00;100712.97;5039360;28;19964;-71
2023/07/31 08:12:33;;;;;;;;;;;;;;;16.12;100.00;100712.13;5047704;28;20391;-70
2023/07/31 08:15:00;;;;;;;;;;;;;;;16.24;100.00;100706.44;5029419;28;19916;-71
2023/07/31 08:17:25;;;;;;;;;;;;;;;16.13;100.00;100705.69;5044635;28;20354;-71
2023/07/31 08:19:50;;;;;;;;;;;;;;;16.17;100.00;100695.38;5017397;28;19921;-75
2023/07/31 08:22:15;;;;;;;;;;;;;;;16.14;100.00;100699.25;5029928;28;20167;-71
2023/07/31 08:24:40;;;;;;;;;;;;;;;16.12;100.00;100700.44;5028014;28;20389;-75
2023/07/31 08:27:06;;;;;;;;;;;;;;;16.11;100.00;100704.16;5010944;28;20382;-71
2023/07/31 08:29:31;;;;;;;;;;;;;;;16.10;100.00;100697.06;5031404;28;20046;-70
2023/07/31 08:31:56;;;;;;;;;;;;;;;16.11;100.00;100704.16;5025231;28;20482;-72
2023/07/31 08:34:21;;;;;;;;;;;;;;;16.17;100.00;100695.38;5025776;28;20457;-73
2023/07/31 08:36:46;;;;;;;;;;;;;;;16.13;100.00;100694.84;5015136;28;19962;-73
2023/07/31 08:39:12;;;;;;;;;;;;;;;16.23;100.00;100702.03;5040455;28;20638;-70
2023/07/31 08:41:40;;;;;;;;;;;;;;;16.21;100.00;100695.94;5031217;28;20441;-74
2023/07/31 08:44:06;;;;;;;;;;;;;;;16.17;100.00;100695.38;5031346;28;19921;-72
2023/07/31 08:46:32;;;;;;;;;;;;;;;16.28;100.00;100697.81;5013994;28;20015;-72
2023/07/31 08:48:58;;;;;;;;;;;;;;;16.29;100.00;100694.09;5040396;28;19924;-71
2023/07/31 08:51:23;;;;;;;;;;;;;;;16.13;100.00;100705.69;5027475;28;20891;-74
2023/07/31 08:53:49;;;;;;;;;;;;;;;16.20;100.00;100692.34;5014951;28;19920;-70
2023/07/31 08:56:14;;;;;;;;;;;;;;;16.13;100.00;100694.84;5008892;28;19928;-69
2023/07/31 08:58:40;;;;;;;;;;;;;;;16.18;100.00;100689.81;5041080;28;19921;-71
2023/07/31 09:01:05;;;;;;;;;;;;;;;16.10;100.00;100694.34;5011343;28;20345;-70
2023/07/31 09:03:33;;;;;;;;;;;;;;;16.19;100.00;100694.22;5012400;28;19963;-70
2023/07/31 09:05:59;;;;;;;;;;;;;;;16.21;100.00;100702.19;5028305;28;19938;-72
2023/07/31 09:08:24;;;;;;;;;;;;;;;16.27;100.00;100698.00;5022185;28;20382;-69
2023/07/31 09:10:49;;;;;;;;;;;;;;;16.24;100.00;100695.59;5047742;28;20283;-77
2023/07/31 09:13:15;;;;;;;;;;;;;;;16.15;100.00;100692.00;5026236;28;20694;-73
2023/07/31 09:15:41;;;;;;;;;;;;;;;16.13;100.00;100697.56;5046414;28;19989;-72
2023/07/31 09:18:06;;;;;;;;;;;;;;;16.29;100.00;100696.81;5029668;28;19966;-71
2023/07/31 09:20:32;;;;;;;;;;;;;;;16.24;100.00;100696.44;5047934;28;20212;-71
2023/07/31 09:23:04;;;;;;;;;;;;;;;16.32;100.00;100696.50;5027902;28;20035;-72
2023/07/31 09:25:30;;;;;;;;;;;;;;;16.27;100.00;100696.13;5028403;28;20382;-71
2023/07/31 09:27:59;;;;;;;;;;;;;;;16.26;100.00;100691.72;5027218;28;19934;-72
2023/07/31 09:30:24;;;;;;;;;;;;;;;16.32;100.00;100692.94;5031820;28;19921;-72
2023/07/31 09:32:50;;;;;;;;;;;;;;;16.25;100.00;100695.44;5031777;28;19921;-73
2023/07/31 09:35:15;;;;;;;;;;;;;;;16.32;100.00;100682.94;5029146;28;19936;-71
2023/07/31 09:37:40;;;;;;;;;;;;;;;16.27;100.00;100690.72;5031679;28;19923;-72
2023/07/31 09:40:06;;;;;;;;;;;;;;;16.24;100.00;100688.31;5028367;28;19963;-71
2023/07/31 09:42:32;;;;;;;;;;;;;;;16.19;100.00;100677.97;5033757;28;19928;-73
2023/07/31 09:45:06;;;;;;;;;;;;;;;16.31;100.00;100673.13;5016879;28;19998;-71
2023/07/31 09:47:32;;;;;;;;;;;;;;;16.30;100.00;100678.69;5034947;28;20007;-72
2023/07/31 09:49:57;;;;;;;;;;;;;;;16.37;100.00;100674.34;5028508;28;20409;-71
2023/07/31 09:52:22;;;;;;;;;;;;;;;16.41;100.00;100674.88;5032636;28;20612;-72
2023/07/31 09:54:48;;;;;;;;;;;;;;;16.48;100.00;100673.19;5019761;28;20526;-72
2023/07/31 09:57:13;;;;;;;;;;;;;;;16.62;100.00;100675.31;5034055;28;20436;-73
2023/07/31 09:59:39;;;;;;;;;;;;;;;16.47;100.00;100676.91;5012244;28;19923;-71
2023/07/31 10:02:04;;;;;;;;;;;;;;;16.68;100.00;100678.38;5029189;28;19947;-72
2023/07/31 10:04:29;;;;;;;;;;;;;;;16.65;100.00;100682.25;5029887;28;19920;-71
2023/07/31 10:06:54;;;;;;;;;;;;;;;16.70;100.00;100676.31;5036110;28;20497;-73
2023/07/31 10:09:20;;;;;;;;;;;;;;;16.71;100.00;100683.44;5031099;28;20363;-72
2023/07/31 10:11:51;;;;;;;;;;;;;;;16.79;100.00;100680.78;5021347;28;20124;-73
2023/07/31 10:14:19;;;;;;;;;;;;;;;16.93;100.00;100679.28;5012798;28;19921;-73
2023/07/31 10:16:45;;;;;;;;;;;;;;;17.01;100.00;100682.06;5029260;28;19960;-73
2023/07/31 10:19:10;;;;;;;;;;;;;;;16.86;100.00;100681.81;5031270;28;20020;-74
2023/07/31 10:21:35;;;;;;;;;;;;;;;17.04;100.00;100673.59;5039457;28;19927;-73
2023/07/31 10:24:02;;;;;;;;;;;;;;;17.06;100.00;100674.28;5014669;28;19924;-73
2023/07/31 10:26:28;;;;;;;;;;;;;;;17.20;100.00;100682.78;5029271;28;20287;-73
2023/07/31 10:28:53;;;;;;;;;;;;;;;17.15;100.00;100686.00;5034857;28;19925;-73
2023/07/31 10:31:19;;;;;;;;;;;;;;;17.14;100.00;100676.16;5035809;28;19916;-74
2023/07/31 10:33:44;;;;;;;;;;;;;;;17.23;100.00;100674.31;5031927;28;19920;-73
2023/07/31 10:36:14;;;;;;;;;;;;;;;17.30;100.00;100674.47;5010007;28;19921;-75
2023/07/31 10:38:39;;;;;;;;;;;;;;;17.41;100.00;100678.72;5013114;28;20430;-74
2023/07/31 10:41:08;;;;;;;;;;;;;;;17.63;100.00;100666.34;5041195;28;19962;-72
2023/07/31 10:43:34;;;;;;;;;;;;;;;17.72;100.00;100664.47;5050011;28;20070;-72
2023/07/31 10:45:59;;;;;;;;;;;;;;;17.69;100.00;100661.09;5051599;28;20376;-71
2023/07/31 10:48:24;;;;;;;;;;;;;;;17.51;100.00;100665.84;5051391;28;20381;-78
2023/07/31 10:50:50;;;;;;;;;;;;;;;17.61;100.00;100668.38;5034092;28;20363;-71
2023/07/31 10:53:32;;;;;;;;;;;;;;;17.45;100.00;100672.81;5033212;28;20336;-72
2023/07/31 10:56:01;;;;;;;;;;;;;;;17.53;100.00;100670.06;5034938;28;19925;-71
2023/07/31 10:58:26;;;;;;;;;;;;;;;17.56;100.00;100663.47;5032370;28;20453;-73
2023/07/31 11:00:55;;;;;;;;;;;;;;;17.48;100.00;100666.19;5016186;28;19921;-74
2023/07/31 11:03:23;;;;;;;;;;;;;;;17.41;100.00;100657.88;5048394;28;19924;-72
2023/07/31 11:05:48;;;;;;;;;;;;;;;17.55;100.00;100653.63;5033656;28;20363;-71
2023/07/31 11:08:20;;;;;;;;;;;;;;;17.54;100.00;100655.50;5034392;28;19925;-73
2023/07/31 11:10:47;;;;;;;;;;;;;;;17.57;100.00;100657.03;5034311;28;20325;-71
2023/07/31 11:13:12;;;;;;;;;;;;;;;17.66;100.00;100656.00;5047632;28;19921;-72
2023/07/31 11:15:38;;;;;;;;;;;;;;;17.58;100.00;100653.31;5033230;28;19954;-71
2023/07/31 11:18:03;;;;;;;;;;;;;;;17.51;100.00;100660.41;5051444;28;20104;-71
2023/07/31 11:20:32;;;;;;;;;;;;;;;17.57;100.00;100667.03;5037361;28;19925;-71
2023/07/31 11:23:01;;;;;;;;;;;;;;;17.57;100.00;100654.31;5030013;28;20241;-72
2023/07/31 11:25:26;;;;;;;;;;;;;;;17.69;100.00;100644.78;5029300;28;19963;-72
2023/07/31 11:27:53;;;;;;;;;;;;;;;17.67;100.00;100663.13;5045874;28;20373;-74
2023/07/31 11:30:19;;;;;;;;;;;;;;;17.71;100.00;100654.63;5031072;28;20375;-72
2023/07/31 11:32:44;;;;;;;;;;;;;;;17.76;100.00;100650.38;5028306;28;20031;-71
2023/07/31 11:35:12;;;;;;;;;;;;;;;17.73;100.00;100652.59;5031959;28;19955;-75
2023/07/31 11:37:38;;;;;;;;;;;;;;;17.78;100.00;100651.06;5032242;28;19920;-73
2023/07/31 11:40:03;;;;;;;;;;;;;;;17.73;100.00;100653.47;5025743;28;19966;-74
2023/07/31 11:42:29;;;;;;;;;;;;;;;17.61;100.00;100646.66;5044784;28;19925;-72
2023/07/31 11:44:54;;;;;;;;;;;;;;;17.58;100.00;100650.59;5029703;28;20172;-73
2023/07/31 11:47:19;;;;;;;;;;;;;;;17.63;100.00;100644.63;5033303;28;19920;-74
2023/07/31 11:49:44;;;;;;;;;;;;;;;17.69;100.00;100643.97;5045407;28;19950;-73
2023/07/31 11:52:10;;;;;;;;;;;;;;;17.72;100.00;100629.19;5025418;28;19921;-73
2023/07/31 11:54:35;;;;;;;;;;;;;;;17.78;100.00;100617.63;5026965;28;20062;-73
2023/07/31 11:57:01;;;;;;;;;;;;;;;17.84;100.00;100627.81;5049092;28;20477;-71
2023/07/31 11:59:26;;;;;;;;;;;;;;;17.72;100.00;100607.47;5030146;28;19920;-75
2023/07/31 12:01:53;;;;;;;;;;;;;;;17.72;100.00;100623.75;5029658;28;20477;-71
2023/07/31 12:04:19;;;;;;;;;;;;;;;17.78;100.00;100623.06;5021359;28;19921;-73
2023/07/31 12:06:44;;;;;;;;;;;;;;;17.77;100.00;100624.91;5034265;28;19947;-74
2023/07/31 12:09:10;;;;;;;;;;;;;;;17.94;100.00;100616.75;5026079;28;20296;-73
2023/07/31 12:11:48;;;;;;;;;;;;;;;18.02;100.00;100629.50;5012693;28;19947;-73
2023/07/31 12:14:28;;;;;;;;;;;;;;;18.04;100.00;100630.19;5032554;28;20039;-73
2023/07/31 12:16:57;;;;;;;;;;;;;;;18.22;100.00;100630.78;5034534;28;20384;-71
2023/07/31 12:19:23;;;;;;;;;;;;;;;18.29;100.00;100620.06;5031189;28;19917;-75
2023/07/31 12:21:48;;;;;;;;;;;;;;;18.39;100.00;100622.59;5012799;28;19916;-72